Time;durP1;ratioP1;P1;durP2;ratioP2;P2;SDS_P1;SDS_P2;PMS_P1;PMS_P2;Temp;Humidity;BMP_temperature;BMP_pressure;BME280_temperature;BME280_humidity;BME280_pressure;Samples;Min_cycle;Max_cycle;Signal;HPM_P1;HPM_P2
2023/01/07 00:01:31;;;;;;;;;;;;;;;15.11;58.91;100691.97;4963155;28;6850;-72
2023/01/07 00:03:59;;;;;;;;;;;;;;;15.10;58.75;100687.66;4963910;28;7312;-72
2023/01/07 00:06:32;;;;;;;;;;;;;;;15.16;58.96;100693.81;4962932;28;6816;-72
2023/01/07 00:08:58;;;;;;;;;;;;;;;15.17;58.75;100686.16;4966984;28;7909;-73
2023/01/07 00:11:28;;;;;;;;;;;;;;;15.17;58.75;100686.16;4966776;28;6793;-73
2023/01/07 00:13:57;;;;;;;;;;;;;;;15.17;58.46;100680.13;4960302;28;7169;-73
2023/01/07 00:16:26;;;;;;;;;;;;;;;15.15;58.36;100677.47;4965630;28;6796;-72
2023/01/07 00:18:54;;;;;;;;;;;;;;;15.17;58.61;100680.13;4965928;28;6808;-73
2023/01/07 00:21:22;;;;;;;;;;;;;;;15.18;58.48;100676.72;4967438;28;6863;-72
2023/01/07 00:23:48;;;;;;;;;;;;;;;15.19;58.64;100678.47;4982868;28;7094;-73
2023/01/07 00:26:18;;;;;;;;;;;;;;;15.17;58.64;100685.28;4965941;28;6784;-72
2023/01/07 00:28:46;;;;;;;;;;;;;;;15.20;58.97;100669.88;4982273;28;6800;-72
2023/01/07 00:31:20;;;;;;;;;;;;;;;15.22;58.68;100673.38;4956557;28;7203;-72
2023/01/07 00:36:16;;;;;;;;;;;;;;;15.26;58.35;100667.53;4962782;28;7078;-72
2023/01/07 00:38:42;;;;;;;;;;;;;;;15.26;58.08;100668.38;4964369;28;6789;-73
2023/01/07 00:41:09;;;;;;;;;;;;;;;15.25;58.24;100663.16;4980028;28;6856;-73
2023/01/07 00:43:34;;;;;;;;;;;;;;;15.25;58.34;100653.72;4979273;28;6857;-73
2023/01/07 00:46:00;;;;;;;;;;;;;;;15.26;58.31;100655.47;4980489;28;6943;-73
2023/01/07 00:48:26;;;;;;;;;;;;;;;15.26;58.15;100654.63;4958567;28;7352;-73
2023/01/07 00:50:53;;;;;;;;;;;;;;;15.25;58.08;100653.72;4963003;28;6784;-73
2023/01/07 00:53:20;;;;;;;;;;;;;;;15.26;58.43;100655.47;4963990;28;7234;-73
2023/01/07 00:55:48;;;;;;;;;;;;;;;15.24;58.55;100648.50;4961688;28;7810;-73
2023/01/07 00:58:20;;;;;;;;;;;;;;;15.22;58.07;100647.56;4981717;28;6800;-73
2023/01/07 01:00:46;;;;;;;;;;;;;;;15.22;58.39;100648.47;4958209;28;8267;-72
2023/01/07 01:03:13;;;;;;;;;;;;;;;15.23;58.04;100639.88;4965257;28;6792;-73
2023/01/07 01:05:39;;;;;;;;;;;;;;;15.23;58.53;100642.47;4979211;28;6796;-72
2023/01/07 01:08:07;;;;;;;;;;;;;;;15.22;57.92;100632.97;4965485;28;6788;-73
2023/01/07 01:10:33;;;;;;;;;;;;;;;15.21;58.10;100638.97;4990193;28;6803;-73
2023/01/07 01:12:59;;;;;;;;;;;;;;;15.19;58.57;100635.44;4990518;28;6866;-72
2023/01/07 01:15:25;;;;;;;;;;;;;;;15.17;57.91;100633.66;4964510;28;6788;-72
2023/01/07 01:17:51;;;;;;;;;;;;;;;15.14;58.34;100630.13;4972714;28;6960;-73
2023/01/07 01:20:18;;;;;;;;;;;;;;;15.15;58.11;100623.25;4980156;28;7206;-73
2023/01/07 01:22:44;;;;;;;;;;;;;;;15.12;58.06;100621.44;4961290;28;7288;-72
2023/01/07 01:25:11;;;;;;;;;;;;;;;15.12;58.08;100621.44;4963837;28;6800;-74
2023/01/07 01:27:37;;;;;;;;;;;;;;;15.12;58.14;100618.00;4989649;28;6800;-73
2023/01/07 01:30:04;;;;;;;;;;;;;;;15.12;58.28;100616.28;4990167;28;6973;-72
2023/01/07 01:32:30;;;;;;;;;;;;;;;15.13;57.88;100618.03;4957316;28;6871;-72
2023/01/07 01:34:56;;;;;;;;;;;;;;;15.17;57.54;100624.19;4976159;28;8268;-73
2023/01/07 01:37:22;;;;;;;;;;;;;;;15.19;57.65;100621.66;4959725;28;6832;-72
2023/01/07 01:39:47;;;;;;;;;;;;;;;15.22;58.20;100614.00;4958981;28;6915;-73
2023/01/07 01:42:22;;;;;;;;;;;;;;;15.24;57.92;100615.81;4953002;28;6785;-73
2023/01/07 01:44:58;;;;;;;;;;;;;;;15.24;58.16;100626.16;4975417;28;6999;-73
2023/01/07 01:47:52;;;;;;;;;;;;;;;15.23;57.70;100619.22;4965253;28;6966;-73
2023/01/07 01:50:32;;;;;;;;;;;;;;;15.23;58.18;100608.91;4974761;28;6804;-73
2023/01/07 01:53:15;;;;;;;;;;;;;;;15.22;57.66;100612.31;4958613;28;6850;-72
2023/01/07 01:55:51;;;;;;;;;;;;;;;15.20;57.74;100608.78;4961120;28;8031;-72
2023/01/07 01:58:26;;;;;;;;;;;;;;;15.20;57.63;100602.75;4989694;28;7018;-73
2023/01/07 02:00:52;;;;;;;;;;;;;;;15.18;57.68;100607.00;4958066;28;6800;-72
2023/01/07 02:03:23;;;;;;;;;;;;;;;15.18;57.84;100609.59;4993787;28;7273;-73
2023/01/07 02:05:48;;;;;;;;;;;;;;;15.19;57.43;100604.44;4993922;28;7234;-73
2023/01/07 02:08:20;;;;;;;;;;;;;;;15.19;57.71;100596.72;4993606;28;7161;-72
2023/01/07 02:10:47;;;;;;;;;;;;;;;15.19;57.99;100595.84;4959209;28;6941;-73
2023/01/07 02:14:05;;;;;;;;;;;;;;;15.18;57.24;100604.44;4964063;28;6780;-73
2023/01/07 02:16:43;;;;;;;;;;;;;;;15.17;57.71;100587.19;4929324;28;7289;-73
2023/01/07 02:19:47;;;;;;;;;;;;;;;15.14;57.94;100583.66;4993650;28;7202;-72
2023/01/07 02:22:59;;;;;;;;;;;;;;;15.13;57.62;100581.91;4961165;28;6823;-73
2023/01/07 02:26:21;;;;;;;;;;;;;;;15.17;58.32;100589.75;4961390;28;6857;-72
2023/01/07 02:29:31;;;;;;;;;;;;;;;15.14;57.80;100577.63;4962197;28;6812;-72
2023/01/07 02:32:36;;;;;;;;;;;;;;;15.16;57.54;100581.13;4956999;28;7199;-73
2023/01/07 02:35:13;;;;;;;;;;;;;;;15.14;58.11;100578.47;4959889;28;7243;-72
2023/01/07 02:38:22;;;;;;;;;;;;;;;15.12;57.82;100579.28;4957755;28;6828;-73
2023/01/07 02:41:23;;;;;;;;;;;;;;;15.12;57.48;100580.16;4953188;28;6804;-72
2023/01/07 02:44:03;;;;;;;;;;;;;;;15.13;57.20;100568.13;4955632;28;7181;-72
2023/01/07 02:46:52;;;;;;;;;;;;;;;15.12;56.99;100572.41;4955785;28;6812;-73
2023/01/07 02:49:18;;;;;;;;;;;;;;;15.11;57.57;100568.06;4959011;28;6824;-73
2023/01/07 02:51:45;;;;;;;;;;;;;;;15.10;57.30;100571.50;4987176;28;7388;-73
2023/01/07 02:54:22;;;;;;;;;;;;;;;15.09;57.46;100567.16;4958497;28;6983;-72
2023/01/07 02:57:18;;;;;;;;;;;;;;;15.06;57.27;100561.88;4977558;28;7031;-73
2023/01/07 03:00:22;;;;;;;;;;;;;;;14.99;56.88;100547.91;4959428;28;6816;-72
2023/01/07 03:03:19;;;;;;;;;;;;;;;14.98;56.96;100551.31;4960419;28;11113;-73
2023/01/07 03:06:12;;;;;;;;;;;;;;;14.97;56.69;100540.97;4958248;28;6811;-72
2023/01/07 03:08:59;;;;;;;;;;;;;;;14.91;57.72;100531.28;4958835;28;6808;-72
2023/01/07 03:11:37;;;;;;;;;;;;;;;14.89;57.52;100539.81;4956613;28;6795;-72
2023/01/07 03:14:47;;;;;;;;;;;;;;;14.88;57.15;100532.91;4962130;28;6800;-72
2023/01/07 03:17:24;;;;;;;;;;;;;;;14.86;57.83;100538.88;4959828;28;6988;-72
2023/01/07 03:19:58;;;;;;;;;;;;;;;14.88;57.72;100538.94;4961611;28;6804;-73
2023/01/07 03:22:29;;;;;;;;;;;;;;;14.85;57.39;100528.53;4979724;28;6812;-72
2023/01/07 03:24:57;;;;;;;;;;;;;;;14.86;57.77;100527.69;4960373;28;6808;-72
2023/01/07 03:27:26;;;;;;;;;;;;;;;14.87;57.37;100537.19;4961108;28;7026;-72
2023/01/07 03:29:53;;;;;;;;;;;;;;;14.89;57.34;100530.38;4960273;28;6967;-73
2023/01/07 03:32:31;;;;;;;;;;;;;;;14.90;57.50;100520.94;4972498;28;7052;-72
2023/01/07 03:34:57;;;;;;;;;;;;;;;14.93;57.05;100526.19;4959566;28;7011;-73
2023/01/07 03:37:26;;;;;;;;;;;;;;;14.94;56.72;100527.94;4990503;28;7405;-72
2023/01/07 03:39:53;;;;;;;;;;;;;;;14.95;57.08;100520.25;4958779;28;6773;-72
2023/01/07 03:42:41;;;;;;;;;;;;;;;14.97;56.48;100523.75;4965315;28;7011;-73
2023/01/07 03:45:20;;;;;;;;;;;;;;;14.97;56.79;100525.47;4967053;28;6823;-72
2023/01/07 03:47:50;;;;;;;;;;;;;;;14.99;56.84;100527.25;4966993;28;7246;-74
2023/01/07 03:50:17;;;;;;;;;;;;;;;14.99;56.37;100522.09;4964895;28;6968;-74
2023/01/07 03:52:43;;;;;;;;;;;;;;;15.01;56.92;100522.16;4966874;28;6872;-74
2023/01/07 03:55:09;;;;;;;;;;;;;;;15.03;56.46;100527.38;4959579;28;6776;-74
2023/01/07 03:57:36;;;;;;;;;;;;;;;15.02;56.44;100513.56;4990728;28;6800;-75
2023/01/07 04:00:09;;;;;;;;;;;;;;;15.02;56.69;100515.25;4990648;28;7082;-74
2023/01/07 04:02:35;;;;;;;;;;;;;;;14.99;56.11;100509.19;4937715;28;11238;-74
2023/01/07 04:05:01;;;;;;;;;;;;;;;15.01;56.47;100509.25;4964398;28;6800;-74
2023/01/07 04:07:26;;;;;;;;;;;;;;;15.01;56.60;100501.50;4991980;28;7296;-74
2023/01/07 04:09:52;;;;;;;;;;;;;;;15.02;55.85;100508.41;4962548;28;6928;-74
2023/01/07 04:12:18;;;;;;;;;;;;;;;15.00;56.44;100500.59;4992000;28;6950;-74
2023/01/07 04:14:44;;;;;;;;;;;;;;;14.96;56.52;100493.63;4964698;28;7176;-74
2023/01/07 04:17:10;;;;;;;;;;;;;;;14.98;56.25;100496.25;4965674;28;7138;-74
2023/01/07 04:19:37;;;;;;;;;;;;;;;14.99;56.04;100485.09;4982481;28;7183;-75
2023/01/07 04:22:09;;;;;;;;;;;;;;;15.00;56.11;100481.69;4989661;28;6799;-74
2023/01/07 04:24:34;;;;;;;;;;;;;;;15.05;55.18;100476.66;4965030;28;7000;-74
2023/01/07 04:27:00;;;;;;;;;;;;;;;15.05;55.92;100482.69;4978433;28;6852;-74
2023/01/07 04:29:25;;;;;;;;;;;;;;;15.07;55.65;100482.75;4962021;28;6784;-74
2023/01/07 04:31:52;;;;;;;;;;;;;;;15.04;55.52;100472.34;4960401;28;7011;-74
2023/01/07 04:34:17;;;;;;;;;;;;;;;15.02;55.15;100474.84;4966310;28;6776;-74
2023/01/07 04:36:43;;;;;;;;;;;;;;;14.98;55.44;100475.59;4962936;28;6792;-74
2023/01/07 04:39:09;;;;;;;;;;;;;;;14.94;55.48;100477.22;4965384;28;6995;-74
2023/01/07 04:41:34;;;;;;;;;;;;;;;14.94;55.15;100484.06;4964396;28;7023;-73
2023/01/07 04:44:00;;;;;;;;;;;;;;;14.93;55.34;100474.56;4964403;28;6992;-75
2023/01/07 04:46:25;;;;;;;;;;;;;;;14.91;55.18;100474.50;4985116;28;7020;-75
2023/01/07 04:48:51;;;;;;;;;;;;;;;14.91;55.46;100471.06;4956960;28;7048;-74
2023/01/07 04:51:19;;;;;;;;;;;;;;;14.89;55.04;100467.56;4954155;28;7014;-74
2023/01/07 04:53:45;;;;;;;;;;;;;;;14.86;55.21;100461.47;4960920;28;6812;-74
2023/01/07 04:56:11;;;;;;;;;;;;;;;14.81;54.77;100451.84;4980745;28;6988;-74
2023/01/07 04:58:38;;;;;;;;;;;;;;;14.76;54.90;100441.38;4959549;28;7027;-74
2023/01/07 05:01:03;;;;;;;;;;;;;;;14.74;54.63;100442.16;4955445;28;7017;-74
2023/01/07 05:03:30;;;;;;;;;;;;;;;14.70;54.82;100446.31;4975267;28;7154;-74
2023/01/07 05:05:56;;;;;;;;;;;;;;;14.66;54.28;100441.88;4946380;28;7167;-74
2023/01/07 05:08:22;;;;;;;;;;;;;;;14.61;54.61;100438.28;4980334;28;6784;-74
2023/01/07 05:10:49;;;;;;;;;;;;;;;14.57;54.77;100429.56;4951305;28;7919;-74
2023/01/07 05:13:16;;;;;;;;;;;;;;;14.63;54.78;100429.78;4978092;28;6808;-75
2023/01/07 05:15:42;;;;;;;;;;;;;;;14.63;54.18;100421.16;4979490;28;6849;-75
2023/01/07 05:18:08;;;;;;;;;;;;;;;14.62;54.40;100424.56;4957230;28;6949;-74
2023/01/07 05:20:34;;;;;;;;;;;;;;;14.61;54.95;100420.22;4977488;28;6768;-74
2023/01/07 05:22:59;;;;;;;;;;;;;;;14.57;54.84;100407.22;4949382;28;6781;-74
2023/01/07 05:25:25;;;;;;;;;;;;;;;14.57;54.44;100411.50;4946973;28;6852;-73
2023/01/07 05:27:51;;;;;;;;;;;;;;;14.53;54.12;100413.13;4978044;28;6764;-74
2023/01/07 05:30:16;;;;;;;;;;;;;;;14.48;53.82;100406.91;4948201;28;6771;-73
2023/01/07 05:32:42;;;;;;;;;;;;;;;14.47;54.53;100401.72;4965180;28;6974;-74
2023/01/07 05:35:08;;;;;;;;;;;;;;;14.43;54.58;100400.75;4976956;28;6921;-73
2023/01/07 05:37:34;;;;;;;;;;;;;;;14.39;54.09;100402.34;4988505;28;7643;-74
2023/01/07 05:39:59;;;;;;;;;;;;;;;14.37;54.43;100395.38;4966300;28;7803;-74
2023/01/07 05:42:25;;;;;;;;;;;;;;;14.33;53.92;100399.56;4958518;28;6923;-74
2023/01/07 05:44:51;;;;;;;;;;;;;;;14.30;53.99;100391.75;4954483;28;6915;-73
2023/01/07 05:47:17;;;;;;;;;;;;;;;14.26;54.54;100389.91;4951668;28;6939;-74
2023/01/07 05:49:42;;;;;;;;;;;;;;;14.25;54.64;100391.59;4976711;28;7037;-73
2023/01/07 05:52:08;;;;;;;;;;;;;;;14.24;54.62;100388.94;4958291;28;7462;-74
2023/01/07 05:54:33;;;;;;;;;;;;;;;14.20;54.67;100390.59;4954442;28;7182;-74
2023/01/07 05:56:59;;;;;;;;;;;;;;;14.16;54.30;100388.72;4960067;28;7029;-74
2023/01/07 05:59:25;;;;;;;;;;;;;;;14.11;54.95;100383.41;4958212;28;6768;-74
2023/01/07 06:01:50;;;;;;;;;;;;;;;14.07;55.15;100386.72;4951538;28;6921;-74
2023/01/07 06:04:16;;;;;;;;;;;;;;;14.09;54.11;100382.47;4955224;28;7890;-74
2023/01/07 06:06:42;;;;;;;;;;;;;;;14.10;53.76;100385.91;4986957;28;6769;-74
2023/01/07 06:09:07;;;;;;;;;;;;;;;14.07;54.50;100381.56;4986794;28;7074;-74
2023/01/07 06:11:33;;;;;;;;;;;;;;;14.02;54.67;100365.94;4982040;28;7481;-75
2023/01/07 06:13:59;;;;;;;;;;;;;;;13.99;54.36;100373.56;4973252;28;6957;-75
2023/01/07 06:16:24;;;;;;;;;;;;;;;14.00;54.03;100372.75;4988806;28;7211;-74
2023/01/07 06:18:50;;;;;;;;;;;;;;;13.98;54.94;100376.09;4955121;28;6876;-74
2023/01/07 06:21:17;;;;;;;;;;;;;;;13.97;54.58;100370.06;4972641;28;6837;-75
2023/01/07 06:23:42;;;;;;;;;;;;;;;13.93;55.12;100375.94;4956797;28;7067;-75
2023/01/07 06:26:08;;;;;;;;;;;;;;;13.90;54.51;100365.50;4955798;28;6923;-74
2023/01/07 06:28:34;;;;;;;;;;;;;;;13.91;55.06;100362.13;4969213;28;6868;-74
2023/01/07 06:30:59;;;;;;;;;;;;;;;13.91;54.93;100367.28;4980922;28;6779;-73
2023/01/07 06:33:25;;;;;;;;;;;;;;;13.95;54.88;100375.97;4958832;28;6768;-75
2023/01/07 06:35:51;;;;;;;;;;;;;;;14.00;54.92;100359.88;4954217;28;6965;-74
2023/01/07 06:38:16;;;;;;;;;;;;;;;14.09;54.26;100374.75;4961919;28;6840;-75
2023/01/07 06:40:43;;;;;;;;;;;;;;;14.15;54.42;100363.75;4980375;28;7162;-74
2023/01/07 06:43:09;;;;;;;;;;;;;;;14.24;54.24;100371.81;4955822;28;6983;-74
2023/01/07 06:45:35;;;;;;;;;;;;;;;14.31;54.81;100370.28;4970364;28;8555;-74
2023/01/07 06:48:01;;;;;;;;;;;;;;;14.38;54.46;100372.25;4987143;28;7218;-73
2023/01/07 06:50:27;;;;;;;;;;;;;;;14.44;54.22;100366.41;4976124;28;7007;-74
2023/01/07 06:52:52;;;;;;;;;;;;;;;14.47;53.96;100363.91;4959169;28;7621;-74
2023/01/07 06:55:18;;;;;;;;;;;;;;;14.52;53.78;100364.94;4987016;28;6850;-74
2023/01/07 06:57:43;;;;;;;;;;;;;;;14.58;53.23;100354.84;4988266;28;6848;-74
2023/01/07 07:00:10;;;;;;;;;;;;;;;14.60;53.44;100351.44;4938118;28;6949;-74
2023/01/07 07:02:35;;;;;;;;;;;;;;;14.64;53.74;100353.25;4956622;28;11381;-74
2023/01/07 07:05:01;;;;;;;;;;;;;;;14.64;53.19;100351.56;4954564;28;6852;-74
2023/01/07 07:07:27;;;;;;;;;;;;;;;14.68;53.58;100357.69;4961571;28;6967;-74
2023/01/07 07:09:52;;;;;;;;;;;;;;;14.71;53.08;100350.03;4957439;28;6780;-73
2023/01/07 07:12:18;;;;;;;;;;;;;;;14.74;53.48;100349.31;4952263;28;6772;-76
2023/01/07 07:14:44;;;;;;;;;;;;;;;14.75;53.39;100340.72;4984981;28;6963;-75
2023/01/07 07:17:10;;;;;;;;;;;;;;;14.77;53.45;100339.06;4954420;28;7281;-74
2023/01/07 07:19:36;;;;;;;;;;;;;;;14.78;52.78;100333.97;4978295;28;7240;-74
2023/01/07 07:22:02;;;;;;;;;;;;;;;14.78;52.86;100327.91;4956804;28;6784;-74
2023/01/07 07:24:28;;;;;;;;;;;;;;;14.79;53.14;100316.75;4962295;28;6792;-74
2023/01/07 07:26:53;;;;;;;;;;;;;;;14.78;52.20;100326.22;4984590;28;6840;-74
2023/01/07 07:29:19;;;;;;;;;;;;;;;14.84;52.29;100328.09;4956317;28;6776;-74
2023/01/07 07:31:45;;;;;;;;;;;;;;;14.86;52.47;100322.13;4943932;28;6784;-74
2023/01/07 07:34:10;;;;;;;;;;;;;;;14.90;52.10;100327.41;4925906;29;7045;-74
2023/01/07 07:36:36;;;;;;;;;;;;;;;14.93;51.65;100310.31;4967466;28;6840;-74
2023/01/07 07:39:03;;;;;;;;;;;;;;;14.94;51.72;100324.06;4942593;28;6772;-74
2023/01/07 07:41:30;;;;;;;;;;;;;;;14.93;51.25;100320.63;4942783;28;7495;-75
2023/01/07 07:43:56;;;;;;;;;;;;;;;14.97;51.86;100311.28;4951922;28;6796;-75
2023/01/07 07:46:21;;;;;;;;;;;;;;;14.99;51.45;100309.59;4966437;28;6796;-76
2023/01/07 07:48:49;;;;;;;;;;;;;;;15.02;51.62;100304.53;4956557;28;6949;-75
2023/01/07 07:51:15;;;;;;;;;;;;;;;15.03;50.90;100301.09;4937039;28;6784;-75
2023/01/07 07:53:40;;;;;;;;;;;;;;;15.02;51.56;100304.53;4939911;28;7053;-73
2023/01/07 07:56:08;;;;;;;;;;;;;;;15.04;51.07;100295.09;4967775;28;6787;-75
2023/01/07 07:58:33;;;;;;;;;;;;;;;15.04;51.29;100295.09;4955282;28;6867;-75
2023/01/07 08:00:59;;;;;;;;;;;;;;;15.07;51.19;100300.38;4956645;28;6776;-75
2023/01/07 08:03:25;;;;;;;;;;;;;;;15.10;50.67;100300.44;4958608;28;6900;-75
2023/01/07 08:05:50;;;;;;;;;;;;;;;15.10;51.14;100292.72;4943943;28;7122;-74
2023/01/07 08:08:16;;;;;;;;;;;;;;;15.10;50.77;100292.72;4959573;28;6960;-75
2023/01/07 08:10:41;;;;;;;;;;;;;;;15.10;51.20;100292.72;4986694;28;8892;-75
2023/01/07 08:13:08;;;;;;;;;;;;;;;15.11;51.58;100286.72;4954906;28;7327;-75
2023/01/07 08:15:35;;;;;;;;;;;;;;;15.12;50.67;100287.59;4961688;28;6803;-76
2023/01/07 08:18:08;;;;;;;;;;;;;;;15.12;50.86;100291.03;4970882;28;6799;-75
2023/01/07 08:20:36;;;;;;;;;;;;;;;15.13;51.70;100285.03;4955546;28;6820;-76
2023/01/07 08:23:04;;;;;;;;;;;;;;;15.16;51.61;100286.84;4971149;28;7018;-77
2023/01/07 08:25:31;;;;;;;;;;;;;;;15.19;51.65;100283.47;4964143;28;6788;-74
2023/01/07 08:27:59;;;;;;;;;;;;;;;15.23;51.01;100293.03;4979707;28;6872;-73
2023/01/07 08:30:25;;;;;;;;;;;;;;;15.26;51.30;100287.97;4989844;28;7884;-73
2023/01/07 08:32:51;;;;;;;;;;;;;;;15.30;51.25;100279.47;4965433;28;7211;-73
2023/01/07 08:35:17;;;;;;;;;;;;;;;15.33;51.33;100268.34;4958368;28;6780;-75
2023/01/07 08:37:43;;;;;;;;;;;;;;;15.36;51.39;100269.31;4962587;28;6800;-76
2023/01/07 08:40:11;;;;;;;;;;;;;;;15.40;51.18;100270.25;4980738;28;6856;-73
2023/01/07 08:42:37;;;;;;;;;;;;;;;15.47;51.36;100264.41;4962120;28;6864;-74
2023/01/07 08:45:03;;;;;;;;;;;;;;;15.55;50.94;100267.22;4990343;28;6836;-74
2023/01/07 08:47:29;;;;;;;;;;;;;;;15.63;50.99;100265.66;4979302;28;6800;-74
2023/01/07 08:49:56;;;;;;;;;;;;;;;15.69;51.16;100258.06;4977266;28;6991;-73
2023/01/07 08:52:23;;;;;;;;;;;;;;;15.77;51.01;100257.41;4989986;28;6792;-74
2023/01/07 08:54:49;;;;;;;;;;;;;;;15.79;50.99;100243.69;4960017;28;6827;-73
2023/01/07 08:57:17;;;;;;;;;;;;;;;15.80;50.58;100247.13;4977558;28;8163;-73
2023/01/07 08:59:42;;;;;;;;;;;;;;;15.76;50.10;100238.44;4958738;28;6901;-73
2023/01/07 09:02:18;;;;;;;;;;;;;;;15.72;50.44;100244.38;4977883;28;8027;-73
2023/01/07 09:04:45;;;;;;;;;;;;;;;15.65;50.07;100245.94;4975232;28;6917;-73
2023/01/07 09:07:11;;;;;;;;;;;;;;;15.59;50.46;100245.78;4984276;28;6954;-74
2023/01/07 09:09:37;;;;;;;;;;;;;;;15.53;50.29;100245.59;4956133;28;8197;-73
2023/01/07 09:12:05;;;;;;;;;;;;;;;15.48;50.85;100242.91;4954458;28;7327;-74
2023/01/07 09:14:31;;;;;;;;;;;;;;;15.44;51.07;100245.38;4979175;28;6965;-73
2023/01/07 09:16:57;;;;;;;;;;;;;;;15.41;50.24;100241.03;4964346;28;6784;-74
2023/01/07 09:19:22;;;;;;;;;;;;;;;15.39;50.41;100243.56;4959861;28;6776;-73
2023/01/07 09:21:50;;;;;;;;;;;;;;;15.38;51.07;100241.81;4956668;28;6954;-73
2023/01/07 09:24:16;;;;;;;;;;;;;;;15.35;50.71;100236.53;4960317;28;6808;-74
2023/01/07 09:26:42;;;;;;;;;;;;;;;15.36;51.37;100238.31;4978746;28;6943;-73
2023/01/07 09:29:08;;;;;;;;;;;;;;;15.37;51.04;100232.31;4958229;28;6902;-74
2023/01/07 09:31:34;;;;;;;;;;;;;;;15.37;50.95;100232.31;4937906;28;6939;-74
2023/01/07 09:33:59;;;;;;;;;;;;;;;15.40;51.41;100229.81;4960653;28;6791;-73
2023/01/07 09:36:25;;;;;;;;;;;;;;;15.41;50.64;100228.97;4959616;28;6803;-73
2023/01/07 09:38:52;;;;;;;;;;;;;;;15.41;51.23;100228.97;4987465;28;7156;-74
2023/01/07 09:41:51;;;;;;;;;;;;;;;15.44;50.78;100220.44;4974461;28;6860;-74
2023/01/07 09:44:49;;;;;;;;;;;;;;;15.45;50.75;100214.44;4959101;28;6876;-73
2023/01/07 09:47:23;;;;;;;;;;;;;;;15.46;50.82;100212.72;4959482;28;7056;-74
2023/01/07 09:49:57;;;;;;;;;;;;;;;15.50;50.84;100206.78;4981611;28;6864;-73
2023/01/07 09:52:40;;;;;;;;;;;;;;;15.53;50.51;100210.34;4961893;28;6796;-73
2023/01/07 09:55:40;;;;;;;;;;;;;;;15.58;49.91;100212.13;4975775;28;7580;-73
2023/01/07 09:58:16;;;;;;;;;;;;;;;15.61;50.53;100207.94;4954425;28;6896;-73
2023/01/07 10:01:01;;;;;;;;;;;;;;;15.61;49.86;100207.06;4973504;28;7253;-73
2023/01/07 10:03:58;;;;;;;;;;;;;;;15.63;49.44;100207.97;4959580;28;6970;-73
2023/01/07 10:06:47;;;;;;;;;;;;;;;15.68;49.54;100202.09;4959825;28;6816;-73
2023/01/07 10:09:46;;;;;;;;;;;;;;;15.69;48.80;100201.25;4978863;28;6808;-73
2023/01/07 10:12:41;;;;;;;;;;;;;;;15.77;49.05;100200.56;4952915;28;6964;-72
2023/01/07 10:15:28;;;;;;;;;;;;;;;15.87;49.03;100194.75;4973638;28;6868;-73
2023/01/07 10:18:33;;;;;;;;;;;;;;;15.93;49.05;100183.72;4955097;28;6880;-73
2023/01/07 10:21:21;;;;;;;;;;;;;;;16.08;48.15;100191.81;4957018;28;8259;-73
2023/01/07 10:24:38;;;;;;;;;;;;;;;16.21;47.63;100182.59;4955107;28;6868;-73
2023/01/07 10:27:12;;;;;;;;;;;;;;;16.36;47.17;100163.94;4956917;28;6892;-73
2023/01/07 10:29:53;;;;;;;;;;;;;;;16.42;45.59;100162.34;4982747;28;6792;-72
2023/01/07 10:32:23;;;;;;;;;;;;;;;16.41;45.70;100153.69;4952682;28;7063;-73
2023/01/07 10:34:54;;;;;;;;;;;;;;;16.43;45.57;100139.09;4955846;28;6820;-73
2023/01/07 10:37:32;;;;;;;;;;;;;;;16.41;44.82;100135.59;4960872;28;6804;-73
2023/01/07 10:40:30;;;;;;;;;;;;;;;16.40;44.99;100127.81;4957933;28;6853;-73
2023/01/07 10:43:22;;;;;;;;;;;;;;;16.38;45.08;100120.03;4947940;28;6795;-74
2023/01/07 10:46:19;;;;;;;;;;;;;;;16.37;44.74;100097.59;4955022;28;6820;-72
2023/01/07 10:49:37;;;;;;;;;;;;;;;16.27;44.75;100095.66;4950253;28;6994;-74
2023/01/07 10:52:30;;;;;;;;;;;;;;;16.15;44.51;100078.19;4959275;28;7165;-73
2023/01/07 10:55:23;;;;;;;;;;;;;;;16.09;44.57;100085.00;4957306;28;6875;-73
2023/01/07 10:57:48;;;;;;;;;;;;;;;16.07;44.40;100062.53;4948275;28;7192;-73
2023/01/07 11:00:17;;;;;;;;;;;;;;;16.17;44.41;100054.13;4952209;28;6833;-73
2023/01/07 11:02:51;;;;;;;;;;;;;;;16.43;44.82;100046.00;4955949;28;6881;-73
2023/01/07 11:05:20;;;;;;;;;;;;;;;16.94;44.20;100044.25;4960573;28;6792;-74
2023/01/07 11:08:10;;;;;;;;;;;;;;;17.49;43.38;100024.38;4957819;28;7022;-74
2023/01/07 11:10:37;;;;;;;;;;;;;;;18.07;42.66;100009.56;4945815;28;6893;-73
2023/01/07 11:13:17;;;;;;;;;;;;;;;18.41;41.89;100015.94;4950974;28;7377;-74
2023/01/07 11:15:53;;;;;;;;;;;;;;;18.70;40.82;100014.50;4967510;28;6980;-74
2023/01/07 11:18:51;;;;;;;;;;;;;;;18.96;41.12;100006.91;4957679;28;6884;-73
2023/01/07 11:21:42;;;;;;;;;;;;;;;19.19;40.34;99982.81;4950909;28;6824;-74
2023/01/07 11:24:26;;;;;;;;;;;;;;;19.45;39.37;99984.72;4980234;28;6811;-73
2023/01/07 11:27:18;;;;;;;;;;;;;;;19.53;39.17;99985.63;4949787;28;6788;-72
2023/01/07 11:30:14;;;;;;;;;;;;;;;19.82;38.85;99987.47;4951239;28;7000;-73
2023/01/07 11:32:40;;;;;;;;;;;;;;;20.05;38.03;99985.81;4969628;28;11227;-73
2023/01/07 11:35:14;;;;;;;;;;;;;;;20.31;37.96;99980.66;4959703;28;6867;-73
2023/01/07 11:37:47;;;;;;;;;;;;;;;20.61;37.63;99984.16;4958751;28;6824;-72
2023/01/07 11:40:13;;;;;;;;;;;;;;;20.86;37.85;99971.16;4987557;28;6863;-73
2023/01/07 11:43:00;;;;;;;;;;;;;;;21.03;37.04;99958.09;4968242;28;6984;-73
2023/01/07 11:45:47;;;;;;;;;;;;;;;21.12;36.96;99957.19;4960056;28;6804;-72
2023/01/07 11:48:30;;;;;;;;;;;;;;;21.29;36.52;99956.28;4967336;28;6866;-72
2023/01/07 11:51:03;;;;;;;;;;;;;;;21.51;35.96;99950.09;4958188;28;7325;-73
2023/01/07 11:53:57;;;;;;;;;;;;;;;21.62;35.75;99938.75;4956848;28;6983;-73
2023/01/07 11:56:30;;;;;;;;;;;;;;;21.62;35.45;99938.75;4958410;28;6997;-72
2023/01/07 11:59:24;;;;;;;;;;;;;;;21.62;35.29;99938.75;4956811;28;6812;-72
2023/01/07 12:01:54;;;;;;;;;;;;;;;21.73;35.78;99931.78;4956536;28;7128;-73
2023/01/07 12:04:33;;;;;;;;;;;;;;;21.94;35.36;99927.31;4960098;28;6788;-73
2023/01/07 12:07:05;;;;;;;;;;;;;;;21.85;34.79;99925.63;4965242;28;6998;-73
2023/01/07 12:09:31;;;;;;;;;;;;;;;21.64;35.12;99924.84;4996656;28;7407;-72
2023/01/07 12:12:33;;;;;;;;;;;;;;;21.51;35.33;99913.59;4959705;28;6843;-73
2023/01/07 12:15:03;;;;;;;;;;;;;;;21.16;35.23;99917.25;4988927;28;7314;-72
2023/01/07 12:17:34;;;;;;;;;;;;;;;20.52;35.68;99916.47;4990928;28;7145;-72
2023/01/07 12:20:42;;;;;;;;;;;;;;;19.82;37.25;99921.56;4961396;28;6796;-72
2023/01/07 12:23:58;;;;;;;;;;;;;;;19.05;37.82;99909.19;4961311;28;6816;-72
2023/01/07 12:26:44;;;;;;;;;;;;;;;18.51;38.48;99915.72;4984973;28;6900;-72
2023/01/07 12:29:56;;;;;;;;;;;;;;;18.22;39.32;99910.28;4952457;28;7479;-72
2023/01/07 12:32:43;;;;;;;;;;;;;;;17.86;40.41;99910.78;4942052;28;6820;-72
2023/01/07 12:35:28;;;;;;;;;;;;;;;17.57;40.36;99900.97;4954847;28;6824;-72
2023/01/07 12:38:22;;;;;;;;;;;;;;;17.38;40.56;99881.75;4944964;28;7265;-72
2023/01/07 12:41:09;;;;;;;;;;;;;;;17.19;40.86;99896.19;4946360;28;6816;-72
2023/01/07 12:43:51;;;;;;;;;;;;;;;17.08;41.72;99886.56;4961321;28;7446;-72
2023/01/07 12:46:21;;;;;;;;;;;;;;;16.96;42.08;99886.38;4973610;28;7216;-72
2023/01/07 12:49:24;;;;;;;;;;;;;;;16.90;41.89;99874.22;4975510;28;6863;-72
2023/01/07 12:52:12;;;;;;;;;;;;;;;16.82;42.02;99882.75;4946132;28;6816;-73
2023/01/07 12:54:54;;;;;;;;;;;;;;;16.79;42.27;99881.84;4975002;28;6828;-72
2023/01/07 12:57:29;;;;;;;;;;;;;;;16.75;42.75;99861.94;4968774;28;7915;-73
2023/01/07 13:00:11;;;;;;;;;;;;;;;16.73;42.63;99860.19;4935053;28;8599;-74
2023/01/07 13:03:31;;;;;;;;;;;;;;;16.71;42.67;99851.53;4958100;28;11168;-73
2023/01/07 13:06:20;;;;;;;;;;;;;;;16.64;42.66;99858.34;4957959;28;6876;-73
2023/01/07 13:09:01;;;;;;;;;;;;;;;16.67;42.95;99848.03;4985489;28;6812;-74
2023/01/07 13:14:34;;;;;;;;;;;;;;;16.67;43.01;99845.44;4958853;28;6816;-73
2023/01/07 13:17:24;;;;;;;;;;;;;;;16.67;43.22;99850.63;4976378;28;7026;-73
2023/01/07 13:19:51;;;;;;;;;;;;;;;16.66;43.08;99843.72;4944303;28;7284;-72
2023/01/07 13:22:47;;;;;;;;;;;;;;;16.65;43.41;99829.03;4960905;28;6820;-73
2023/01/07 13:25:47;;;;;;;;;;;;;;;16.56;43.11;99839.25;4962199;28;7175;-73
2023/01/07 13:28:19;;;;;;;;;;;;;;;16.46;42.98;99836.53;4961119;28;6887;-73